Terminal Aerodrome Forecast
Issued by NWS

Home | Current Version | Previous Version | Text Only | Print | Product List | Glossary Off
Versions: 1 2 3 4 5 6 7 8 9 10 11 12 13 14 15

000
FTUS43 KIWX 221804 RRI
TAFSBN

KSBN 221805Z 2218/2318 31007KT P6SM OVC030
     FM222200 26005KT P6SM BKN025
     FM230400 24006KT P6SM BKN035=

USA.gov is the U.S. government's official web portal to all federal, state and local government web resources and services.